createdAt,value
2019-03-12T00:01:34.293Z,0.99
2019-03-12T00:04:04.465Z,0.91
2019-03-12T00:06:34.198Z,0.81
2019-03-12T00:09:05.703Z,0.70
2019-03-12T00:11:35.432Z,0.69
2019-03-12T00:14:05.159Z,0.65
2019-03-12T00:16:35.106Z,0.58
2019-03-12T00:19:04.916Z,0.56
2019-03-12T00:21:34.689Z,0.47
2019-03-12T00:24:04.481Z,0.40
2019-03-12T00:26:34.306Z,0.34
2019-03-12T00:29:04.157Z,0.36
2019-03-12T00:31:33.921Z,0.33
2019-03-12T00:34:03.657Z,0.29
2019-03-12T00:36:33.366Z,0.17
2019-03-12T00:39:03.051Z,0.16
2019-03-12T00:41:32.776Z,0.17
2019-03-12T00:44:02.552Z,0.33
2019-03-12T00:46:32.261Z,0.38
2019-03-12T00:49:01.944Z,0.45
2019-03-12T00:51:31.886Z,0.41
2019-03-12T00:54:01.646Z,0.45
2019-03-12T00:56:31.386Z,0.44
2019-03-12T00:59:01.082Z,0.52
2019-03-12T01:01:30.856Z,0.67
2019-03-12T01:04:00.611Z,0.81
2019-03-12T01:06:32.370Z,0.85
2019-03-12T01:09:02.088Z,0.84
2019-03-12T01:11:31.795Z,0.94
2019-03-12T01:14:01.477Z,0.94
2019-03-12T01:16:31.224Z,1.04
2019-03-12T01:19:01.061Z,1.02
2019-03-12T01:21:30.985Z,0.99
2019-03-12T01:24:00.697Z,0.93
2019-03-12T01:26:30.502Z,0.97
2019-03-12T01:29:00.307Z,1.01
2019-03-12T01:31:30.111Z,0.99
2019-03-12T01:34:00.910Z,1.00
2019-03-12T01:36:30.602Z,1.05
2019-03-12T01:39:00.327Z,1.03
2019-03-12T01:41:30.302Z,1.05
2019-03-12T01:44:00.050Z,1.12
2019-03-12T01:46:29.749Z,1.21
2019-03-12T01:48:59.563Z,1.35
2019-03-12T01:51:31.185Z,1.45
2019-03-12T01:54:00.730Z,1.60
2019-03-12T01:56:30.490Z,1.60
2019-03-12T01:59:00.297Z,1.66
2019-03-12T02:01:30.113Z,1.68
2019-03-12T02:03:59.827Z,1.81
2019-03-12T02:06:29.568Z,1.83
2019-03-12T02:08:59.405Z,1.92
2019-03-12T02:11:29.270Z,1.95
2019-03-12T02:13:59.105Z,1.92
2019-03-12T02:16:28.872Z,1.90
2019-03-12T02:18:58.626Z,1.86
2019-03-12T02:21:28.422Z,1.84
2019-03-12T02:23:58.125Z,1.78
2019-03-12T02:26:27.824Z,1.88
2019-03-12T02:28:57.685Z,1.66
2019-03-12T02:31:27.498Z,1.58
2019-03-12T02:33:57.219Z,1.46
2019-03-12T02:36:27.060Z,1.49
2019-03-12T02:38:57.845Z,1.42
2019-03-12T02:41:27.537Z,1.28
2019-03-12T02:43:57.351Z,1.16
2019-03-12T02:46:27.125Z,1.09
2019-03-12T02:48:56.896Z,1.01
2019-03-12T02:51:26.587Z,0.91
2019-03-12T02:53:56.490Z,0.79
2019-03-12T02:56:26.231Z,0.81
2019-03-12T02:58:55.947Z,0.81
2019-03-12T03:01:25.694Z,0.85
2019-03-12T03:03:55.459Z,0.69
2019-03-12T03:06:32.262Z,0.87
2019-03-12T03:09:01.995Z,0.93
2019-03-12T03:11:32.079Z,0.93
2019-03-12T03:14:02.146Z,1.17
2019-03-12T03:16:32.083Z,1.31
2019-03-12T03:19:02.309Z,1.31
2019-03-12T03:21:32.471Z,1.44
2019-03-12T03:24:02.599Z,1.46
2019-03-12T03:26:32.410Z,1.48
2019-03-12T03:29:03.064Z,1.59
2019-03-12T03:31:32.799Z,1.71
2019-03-12T03:34:02.553Z,1.75
2019-03-12T03:36:32.335Z,1.74
2019-03-12T03:39:04.212Z,1.73
2019-03-12T03:41:35.030Z,1.90
2019-03-12T03:44:05.106Z,1.79
2019-03-12T03:46:34.821Z,1.77
2019-03-12T03:49:04.584Z,1.86
2019-03-12T03:51:34.359Z,1.88
2019-03-12T03:54:04.251Z,1.92
2019-03-12T03:56:34.121Z,1.84
2019-03-12T03:59:03.958Z,1.83
2019-03-12T04:01:33.617Z,1.78
2019-03-12T04:04:03.439Z,1.87
2019-03-12T04:06:34.320Z,1.90
2019-03-12T04:09:06.733Z,1.94
2019-03-12T04:11:36.532Z,1.95
2019-03-12T04:14:06.406Z,1.86
2019-03-12T04:16:36.137Z,1.94
2019-03-12T04:19:05.892Z,1.86
2019-03-12T04:21:35.691Z,1.82
2019-03-12T04:24:05.451Z,1.86
2019-03-12T04:26:35.265Z,2.06
2019-03-12T04:29:04.984Z,1.91
2019-03-12T04:31:34.743Z,1.81
2019-03-12T04:34:12.337Z,1.76
2019-03-12T04:36:42.153Z,1.67
2019-03-12T04:39:15.564Z,1.79
2019-03-12T04:41:45.311Z,1.77
2019-03-12T04:44:15.031Z,1.77
2019-03-12T04:46:44.781Z,1.73
2019-03-12T04:49:14.505Z,1.84
2019-03-12T04:51:44.298Z,1.75
2019-03-12T04:54:14.069Z,1.80
2019-03-12T04:56:43.789Z,1.87
2019-03-12T04:59:13.572Z,1.87
2019-03-12T05:01:43.628Z,1.86
2019-03-12T05:04:13.400Z,1.85
2019-03-12T05:06:43.206Z,1.91
2019-03-12T05:09:12.983Z,1.94
2019-03-12T05:11:43.294Z,1.95
2019-03-12T05:14:30.241Z,2.08
2019-03-12T05:17:03.573Z,2.25
2019-03-12T05:19:33.297Z,2.13
2019-03-12T05:22:03.202Z,2.09
2019-03-12T05:24:33.035Z,2.23
2019-03-12T05:27:02.832Z,2.11
2019-03-12T05:29:32.678Z,2.17
2019-03-12T05:32:02.469Z,2.24
2019-03-12T05:34:32.177Z,2.17
2019-03-12T05:37:02.041Z,2.29
2019-03-12T05:39:31.765Z,2.16
2019-03-12T05:42:01.540Z,2.35
2019-03-12T05:44:31.319Z,2.39
2019-03-12T05:47:01.064Z,2.38
2019-03-12T05:49:30.885Z,2.25
2019-03-12T05:52:00.624Z,2.26
2019-03-12T05:54:30.411Z,2.26
2019-03-12T05:57:00.120Z,2.43
2019-03-12T05:59:29.921Z,2.48
2019-03-12T06:01:59.665Z,2.62
2019-03-12T06:04:29.411Z,2.55
2019-03-12T06:06:59.249Z,2.71
2019-03-12T06:09:30.490Z,2.69
2019-03-12T06:12:00.525Z,2.67
2019-03-12T06:14:30.244Z,2.85
2019-03-12T06:17:00.018Z,2.71
2019-03-12T06:19:30.015Z,2.83
2019-03-12T06:21:59.731Z,2.87
2019-03-12T06:24:29.536Z,3.01
2019-03-12T06:26:59.262Z,2.98
2019-03-12T06:29:29.137Z,3.20
2019-03-12T06:32:15.665Z,3.19
2019-03-12T06:34:47.198Z,3.20
2019-03-12T06:37:18.564Z,3.27
2019-03-12T06:40:01.680Z,3.32
2019-03-12T06:42:33.021Z,3.25
2019-03-12T06:45:07.103Z,3.41
2019-03-12T06:47:47.274Z,3.27
2019-03-12T06:50:18.713Z,3.27
2019-03-12T06:53:08.052Z,3.34
2019-03-12T06:55:41.913Z,3.36
2019-03-12T06:58:13.339Z,3.47
2019-03-12T07:00:59.958Z,3.44
2019-03-12T07:03:33.809Z,3.38
2019-03-12T07:06:10.925Z,3.70
2019-03-12T07:08:51.280Z,3.42
2019-03-12T07:11:37.743Z,3.46
2019-03-12T07:14:09.250Z,3.49
2019-03-12T07:16:59.008Z,3.51
2019-03-12T07:19:45.595Z,3.53
2019-03-12T07:22:33.187Z,3.66
2019-03-12T07:25:22.853Z,3.74
2019-03-12T07:28:10.448Z,3.65
2019-03-12T07:30:53.873Z,3.78
2019-03-12T07:33:43.418Z,3.83
2019-03-12T07:36:30.955Z,3.84
2019-03-12T07:39:11.400Z,3.71
2019-03-12T07:41:51.613Z,3.65
2019-03-12T07:44:39.460Z,3.76
2019-03-12T07:47:13.836Z,3.85
2019-03-12T07:49:51.039Z,3.91
2019-03-12T07:52:37.281Z,4.07
2019-03-12T07:55:11.155Z,4.04
2019-03-12T07:57:51.300Z,4.23
2019-03-12T08:00:22.703Z,4.29
2019-03-12T08:02:54.076Z,4.19
2019-03-12T08:05:43.664Z,4.19
2019-03-12T08:08:20.862Z,4.21
2019-03-12T08:10:52.375Z,4.14
2019-03-12T08:13:34.867Z,4.34
2019-03-12T08:16:11.779Z,4.30
2019-03-12T08:18:43.172Z,4.25
2019-03-12T08:21:26.266Z,4.31
2019-03-12T08:24:03.586Z,4.43
2019-03-12T08:26:35.139Z,4.63
2019-03-12T08:29:09.669Z,4.89
2019-03-12T08:31:44.175Z,5.03
2019-03-12T08:34:24.299Z,5.09
2019-03-12T08:37:01.208Z,5.30
2019-03-12T08:39:44.107Z,5.43
2019-03-12T08:42:15.530Z,5.58
2019-03-12T08:44:46.908Z,5.71
2019-03-12T08:47:34.344Z,5.70
2019-03-12T08:50:12.674Z,5.92
2019-03-12T08:52:44.008Z,6.13
2019-03-12T08:55:15.468Z,5.91
2019-03-12T08:57:46.968Z,5.90
2019-03-12T09:00:18.331Z,5.85
2019-03-12T09:02:52.482Z,5.96
2019-03-12T09:05:23.831Z,6.34
2019-03-12T09:08:01.204Z,6.25
2019-03-12T09:10:32.556Z,6.19
2019-03-12T09:13:19.189Z,6.17
2019-03-12T09:15:50.535Z,6.16
2019-03-12T09:18:33.819Z,6.15
2019-03-12T09:21:05.248Z,6.02
2019-03-12T09:23:42.972Z,6.01
2019-03-12T09:26:30.627Z,6.03
2019-03-12T09:29:17.933Z,5.96
2019-03-12T09:32:00.967Z,5.96
2019-03-12T09:34:38.070Z,5.96
2019-03-12T09:37:09.494Z,6.00
2019-03-12T09:39:46.853Z,5.93
2019-03-12T09:42:34.457Z,5.92
2019-03-12T09:45:08.445Z,5.96
2019-03-12T09:47:57.689Z,5.88
2019-03-12T09:50:31.807Z,5.96
2019-03-12T09:53:05.838Z,6.03
2019-03-12T09:55:53.477Z,6.06
2019-03-12T09:58:30.583Z,6.12
2019-03-12T10:01:07.713Z,6.19
2019-03-12T10:04:04.548Z,6.24
2019-03-12T10:06:38.565Z,6.22
2019-03-12T10:09:31.384Z,6.06
2019-03-12T10:12:11.529Z,5.98
2019-03-12T10:14:48.771Z,6.10
2019-03-12T10:17:23.458Z,6.26
2019-03-12T10:19:54.806Z,6.30
2019-03-12T10:22:26.182Z,6.44
2019-03-12T10:25:13.787Z,6.29
2019-03-12T10:27:54.224Z,6.26
2019-03-12T10:30:25.573Z,6.26
2019-03-12T10:33:02.853Z,6.20
2019-03-12T10:35:39.969Z,6.17
2019-03-12T10:39:06.194Z,6.27
2019-03-12T10:41:40.321Z,6.35
2019-03-12T10:44:14.784Z,6.45
2019-03-12T10:46:46.169Z,6.54
2019-03-12T10:49:15.955Z,6.59
2019-03-12T10:51:45.736Z,6.52
2019-03-12T10:54:15.448Z,6.41
2019-03-12T10:56:48.183Z,6.41
2019-03-12T10:59:18.060Z,6.26
2019-03-12T11:01:47.789Z,6.32
2019-03-12T11:04:17.541Z,6.41
2019-03-12T11:06:47.262Z,6.46
2019-03-12T11:09:17.051Z,6.55
2019-03-12T11:11:46.781Z,6.36
2019-03-12T11:14:16.565Z,6.49
2019-03-12T11:16:46.329Z,6.32
2019-03-12T11:19:16.048Z,6.34
2019-03-12T11:21:45.902Z,6.29
2019-03-12T11:24:15.665Z,6.30
2019-03-12T11:26:45.422Z,6.03
2019-03-12T11:29:15.205Z,5.91
2019-03-12T11:31:44.951Z,5.94
2019-03-12T11:34:14.794Z,5.90
2019-03-12T11:36:44.509Z,5.83
2019-03-12T11:39:14.380Z,5.71
2019-03-12T11:41:44.152Z,5.67
2019-03-12T11:44:14.148Z,5.61
2019-03-12T11:46:45.963Z,5.54
2019-03-12T11:49:15.588Z,5.52
2019-03-12T11:51:45.396Z,5.62
2019-03-12T11:54:15.160Z,5.64
2019-03-12T11:56:44.930Z,5.61
2019-03-12T11:59:14.671Z,5.51
2019-03-12T12:01:44.397Z,5.57
2019-03-12T12:04:14.100Z,5.56
2019-03-12T12:06:44.033Z,5.55
2019-03-12T12:09:13.863Z,5.50
2019-03-12T12:11:43.710Z,5.54
2019-03-12T12:14:13.410Z,5.68
2019-03-12T12:16:43.197Z,5.60
2019-03-12T12:19:12.994Z,5.75
2019-03-12T12:21:42.763Z,5.81
2019-03-12T12:24:12.548Z,5.75
2019-03-12T12:26:42.247Z,5.80
2019-03-12T12:29:11.975Z,5.82
2019-03-12T12:31:41.669Z,5.88
2019-03-12T12:34:11.465Z,5.95
2019-03-12T12:36:41.308Z,5.99
2019-03-12T12:39:11.003Z,5.95
2019-03-12T12:41:40.770Z,5.96
2019-03-12T12:44:10.474Z,5.97
2019-03-12T12:46:40.266Z,6.06
2019-03-12T12:49:10.409Z,6.05
2019-03-12T12:51:40.117Z,6.08
2019-03-12T12:54:10.086Z,6.04
2019-03-12T12:56:39.848Z,6.11
2019-03-12T12:59:09.659Z,6.08
2019-03-12T13:01:39.531Z,6.19
2019-03-12T13:04:09.228Z,6.34
2019-03-12T13:06:39.055Z,6.35
2019-03-12T13:09:08.785Z,6.43
2019-03-12T13:11:38.630Z,6.57
2019-03-12T13:14:08.358Z,6.48
2019-03-12T13:16:38.129Z,6.56
2019-03-12T13:19:07.816Z,6.45
2019-03-12T13:21:37.568Z,6.47
2019-03-12T13:24:07.320Z,6.44
2019-03-12T13:26:37.051Z,6.36
2019-03-12T13:29:06.813Z,6.38
2019-03-12T13:31:36.610Z,6.40
2019-03-12T13:34:06.307Z,6.38
2019-03-12T13:36:36.088Z,6.31
2019-03-12T13:39:07.582Z,6.30
2019-03-12T13:41:37.433Z,6.22
2019-03-12T13:44:07.281Z,6.20
2019-03-12T13:46:39.058Z,6.11
2019-03-12T13:49:08.869Z,6.00
2019-03-12T13:51:39.666Z,5.91
2019-03-12T13:54:09.936Z,5.93
2019-03-12T13:56:39.904Z,5.82
2019-03-12T13:59:09.733Z,5.90
2019-03-12T14:01:39.434Z,5.83
2019-03-12T14:04:11.007Z,5.85
2019-03-12T14:06:40.823Z,5.89
2019-03-12T14:09:10.542Z,5.91
2019-03-12T14:11:40.372Z,5.93
2019-03-12T14:14:10.162Z,5.96
2019-03-12T14:16:39.929Z,5.96
2019-03-12T14:19:09.745Z,6.02
2019-03-12T14:21:41.005Z,6.05
2019-03-12T14:24:10.812Z,6.00
2019-03-12T14:26:40.628Z,6.02
2019-03-12T14:29:10.385Z,6.10
2019-03-12T14:31:40.161Z,6.20
2019-03-12T14:34:09.870Z,6.16
2019-03-12T14:36:39.847Z,6.27
2019-03-12T14:39:09.689Z,6.33
2019-03-12T14:41:39.486Z,6.38
2019-03-12T14:44:09.188Z,6.31
2019-03-12T14:46:38.874Z,6.32
2019-03-12T14:49:09.279Z,6.37
2019-03-12T14:51:44.990Z,6.34
2019-03-12T14:54:14.980Z,6.36
2019-03-12T14:56:44.702Z,6.38
2019-03-12T14:59:14.563Z,6.41
2019-03-12T15:01:44.428Z,6.45
2019-03-12T15:04:15.252Z,6.37
2019-03-12T15:06:45.240Z,6.45
2019-03-12T15:09:15.571Z,6.36
2019-03-12T15:11:45.285Z,6.41
2019-03-12T15:14:16.047Z,6.36
2019-03-12T15:16:45.843Z,6.47
2019-03-12T15:19:21.654Z,6.49
2019-03-12T15:21:51.411Z,6.50
2019-03-12T15:24:21.180Z,6.48
2019-03-12T15:26:50.910Z,6.54
2019-03-12T15:29:20.679Z,6.47
2019-03-12T15:32:03.146Z,6.49
2019-03-12T15:34:21.976Z,6.53
2019-03-12T15:36:51.720Z,6.53
2019-03-12T15:39:21.579Z,6.57
2019-03-12T15:41:51.348Z,6.63
2019-03-12T15:44:21.072Z,6.63
2019-03-12T15:46:50.855Z,6.61
2019-03-12T15:49:20.530Z,6.68
2019-03-12T15:51:50.353Z,6.62
2019-03-12T15:54:20.331Z,6.58
2019-03-12T15:56:50.205Z,6.59
2019-03-12T15:59:20.048Z,6.64
2019-03-12T16:01:49.782Z,6.72
2019-03-12T16:04:19.545Z,6.78
2019-03-12T16:07:00.742Z,6.70
2019-03-12T16:09:20.798Z,6.76
2019-03-12T16:11:50.532Z,6.81
2019-03-12T16:14:20.357Z,6.72
2019-03-12T16:16:50.496Z,6.64
2019-03-12T16:19:20.264Z,6.65
2019-03-12T16:21:50.178Z,6.68
2019-03-12T16:24:19.960Z,6.62
2019-03-12T16:26:49.707Z,6.52
2019-03-12T16:29:19.487Z,6.53
2019-03-12T16:31:49.251Z,6.46
2019-03-12T16:34:18.971Z,6.41
2019-03-12T16:36:48.808Z,6.39
2019-03-12T16:39:18.570Z,6.44
2019-03-12T16:41:48.343Z,6.52
2019-03-12T16:44:18.074Z,6.48
2019-03-12T16:46:47.835Z,6.45
2019-03-12T16:49:17.559Z,6.45
2019-03-12T16:51:47.279Z,6.42
2019-03-12T16:54:17.090Z,6.44
2019-03-12T16:56:46.926Z,6.33
2019-03-12T16:59:16.633Z,6.34
2019-03-12T17:01:46.662Z,6.47
2019-03-12T17:04:16.369Z,6.37
2019-03-12T17:06:46.181Z,6.50
2019-03-12T17:09:15.984Z,6.43
2019-03-12T17:11:45.693Z,6.50
2019-03-12T17:14:15.444Z,6.49
2019-03-12T17:16:45.174Z,6.56
2019-03-12T17:19:15.108Z,6.57
2019-03-12T17:21:44.781Z,6.60
2019-03-12T17:24:14.508Z,6.62
2019-03-12T17:26:44.254Z,6.61
2019-03-12T17:29:13.993Z,6.59
2019-03-12T17:31:43.785Z,6.72
2019-03-12T17:34:13.572Z,6.73
2019-03-12T17:36:43.284Z,6.77
2019-03-12T17:39:13.026Z,6.68
2019-03-12T17:41:42.739Z,6.74
2019-03-12T17:44:12.498Z,6.65
2019-03-12T17:46:42.183Z,6.72
2019-03-12T17:49:12.823Z,6.73
2019-03-12T17:51:42.701Z,6.78
2019-03-12T17:54:12.459Z,6.73
2019-03-12T17:56:42.192Z,6.75
2019-03-12T17:59:11.960Z,6.78
2019-03-12T18:01:41.777Z,6.86
2019-03-12T18:04:11.497Z,6.78
2019-03-12T18:06:41.223Z,6.89
2019-03-12T18:09:11.398Z,6.76
2019-03-12T18:11:41.105Z,6.72
2019-03-12T18:14:10.863Z,6.79
2019-03-12T18:16:41.593Z,6.78
2019-03-12T18:19:11.465Z,6.68
2019-03-12T18:21:41.182Z,6.61
2019-03-12T18:24:10.908Z,6.66
2019-03-12T18:26:40.597Z,6.60
2019-03-12T18:29:10.333Z,6.56
2019-03-12T18:31:40.080Z,6.51
2019-03-12T18:34:10.178Z,6.47
2019-03-12T18:36:40.110Z,6.50
2019-03-12T18:39:10.255Z,6.37
2019-03-12T18:41:39.953Z,6.36
2019-03-12T18:44:09.869Z,6.32
2019-03-12T18:46:42.954Z,6.26
2019-03-12T18:49:11.092Z,6.28
2019-03-12T18:51:40.921Z,6.15
2019-03-12T18:54:10.691Z,6.14
2019-03-12T18:56:40.409Z,6.16
2019-03-12T18:59:10.318Z,6.18
2019-03-12T19:01:40.037Z,6.24
2019-03-12T19:04:09.773Z,6.17
2019-03-12T19:06:39.570Z,6.19
2019-03-12T19:09:10.037Z,6.17
2019-03-12T19:11:39.717Z,6.13
2019-03-12T19:14:09.509Z,6.08
2019-03-12T19:16:39.215Z,6.05
2019-03-12T19:19:08.945Z,6.01
2019-03-12T19:21:38.728Z,5.89
2019-03-12T19:24:08.477Z,5.93
2019-03-12T19:26:38.264Z,6.02
2019-03-12T19:29:09.064Z,6.03
2019-03-12T19:31:43.319Z,5.98
2019-03-12T19:34:13.239Z,5.89
2019-03-12T19:36:42.968Z,5.90
2019-03-12T19:39:14.459Z,5.90
2019-03-12T19:41:44.171Z,5.94
2019-03-12T19:44:13.896Z,5.96
2019-03-12T19:46:43.697Z,5.91
2019-03-12T19:49:13.473Z,5.89
2019-03-12T19:51:43.281Z,5.85
2019-03-12T19:54:13.215Z,5.89
2019-03-12T19:56:42.958Z,6.00
2019-03-12T19:59:12.856Z,5.96
2019-03-12T20:01:44.075Z,5.97
2019-03-12T20:04:13.885Z,5.94
2019-03-12T20:06:43.791Z,5.90
2019-03-12T20:09:15.376Z,5.79
2019-03-12T20:11:53.985Z,5.76
2019-03-12T20:15:00.721Z,5.78
2019-03-12T20:17:44.941Z,5.84
2019-03-12T20:20:38.889Z,5.81
2019-03-12T20:23:36.292Z,5.90
2019-03-12T20:26:29.894Z,5.90
2019-03-12T20:29:19.252Z,5.91
2019-03-12T20:31:51.998Z,5.87
2019-03-12T20:34:47.006Z,5.80
2019-03-12T20:37:39.342Z,5.74
2019-03-12T20:40:40.605Z,5.71
2019-03-12T20:43:32.963Z,5.71
2019-03-12T20:46:39.028Z,5.66
2019-03-12T20:49:40.444Z,5.73
2019-03-12T20:52:45.041Z,5.78
2019-03-12T20:55:32.126Z,5.70
2019-03-12T20:58:38.104Z,5.86
2019-03-12T21:01:16.753Z,5.93
2019-03-12T21:04:17.485Z,5.94
2019-03-12T21:07:12.706Z,6.15
2019-03-12T21:10:00.760Z,6.17
2019-03-12T21:12:49.984Z,6.23
2019-03-12T21:15:34.337Z,5.96
2019-03-12T21:18:18.814Z,5.92
2019-03-12T21:21:10.947Z,5.83
2019-03-12T21:24:01.605Z,5.77
2019-03-12T21:26:36.917Z,5.65
2019-03-12T21:29:27.566Z,5.64
2019-03-12T21:31:57.335Z,5.61
2019-03-12T21:34:26.971Z,5.46
2019-03-12T21:36:57.050Z,5.47
2019-03-12T21:39:26.776Z,5.49
2019-03-12T21:41:56.533Z,5.46
2019-03-12T21:44:26.306Z,5.35
2019-03-12T21:46:56.026Z,5.36
2019-03-12T21:49:25.862Z,5.26
2019-03-12T21:51:55.584Z,5.19
2019-03-12T21:54:25.244Z,5.23
2019-03-12T21:56:54.931Z,5.19
2019-03-12T21:59:24.627Z,5.15
2019-03-12T22:01:54.342Z,5.16
2019-03-12T22:04:24.007Z,5.21
2019-03-12T22:06:53.954Z,5.18
2019-03-12T22:09:24.080Z,5.13
2019-03-12T22:11:53.811Z,5.24
2019-03-12T22:14:23.548Z,5.26
2019-03-12T22:16:53.840Z,5.31
2019-03-12T22:19:23.692Z,5.23
2019-03-12T22:22:00.648Z,5.26
2019-03-12T22:24:30.538Z,5.40
2019-03-12T22:27:06.327Z,5.41
2019-03-12T22:29:36.075Z,5.42
2019-03-12T22:32:06.701Z,5.43
2019-03-12T22:34:36.455Z,5.43
2019-03-12T22:37:06.084Z,5.53
2019-03-12T22:39:35.727Z,5.62
2019-03-12T22:42:05.480Z,5.58
2019-03-12T22:44:35.136Z,5.78
2019-03-12T22:47:04.897Z,5.62
2019-03-12T22:49:34.547Z,5.51
2019-03-12T22:52:04.189Z,5.52
2019-03-12T22:54:33.854Z,5.50
2019-03-12T22:57:03.543Z,5.45
2019-03-12T22:59:33.266Z,5.51
2019-03-12T23:02:03.148Z,5.56
2019-03-12T23:04:32.801Z,5.53
2019-03-12T23:07:02.493Z,5.43
2019-03-12T23:09:32.373Z,5.34
2019-03-12T23:12:02.103Z,5.36
2019-03-12T23:14:31.765Z,5.27
2019-03-12T23:17:01.411Z,5.43
2019-03-12T23:19:31.060Z,5.52
2019-03-12T23:22:00.758Z,5.41
2019-03-12T23:24:30.514Z,5.47
2019-03-12T23:27:03.290Z,5.32
2019-03-12T23:29:32.931Z,5.32
2019-03-12T23:32:02.577Z,5.33
2019-03-12T23:34:32.208Z,5.24
2019-03-12T23:37:01.880Z,5.19
2019-03-12T23:39:31.546Z,5.30
2019-03-12T23:42:01.168Z,5.33
2019-03-12T23:44:30.956Z,5.36
2019-03-12T23:47:00.618Z,5.38
2019-03-12T23:49:30.428Z,5.28
2019-03-12T23:52:00.098Z,5.36
2019-03-12T23:54:30.158Z,5.34
2019-03-12T23:56:59.932Z,5.27
2019-03-12T23:59:29.947Z,5.30
